Terminal Aerodrome Forecast
Issued by NWS Sioux Falls, SD

Home | Current Version | Previous Version | Graphics & Text | Print | Product List | Glossary Off
Versions: 1 2 3 4 5 6 7 8 9 10 11 12 13 14

000
FTUS43 KFSD 180534
TAFFSD
TAF
KFSD 180534Z 1806/1906 36009KT P6SM OVC020
     FM181400 VRB03KT P6SM OVC015
     FM181800 16008KT P6SM SCT025=

USA.gov is the U.S. government's official web portal to all federal, state and local government web resources and services.